sensor_id;sensor_type;location;lat;lon;timestamp;temperature;humidity
13713;DHT22;6928;50.546;7.120;2023-06-04T00:02:01;13.00;66.59
13713;DHT22;6928;50.546;7.120;2023-06-04T00:04:28;12.93;66.76
13713;DHT22;6928;50.546;7.120;2023-06-04T00:06:56;13.00;66.91
13713;DHT22;6928;50.546;7.120;2023-06-04T00:09:23;13.00;66.68
13713;DHT22;6928;50.546;7.120;2023-06-04T00:11:50;12.90;67.10
13713;DHT22;6928;50.546;7.120;2023-06-04T00:14:17;12.79;67.50
13713;DHT22;6928;50.546;7.120;2023-06-04T00:16:44;12.79;67.58
13713;DHT22;6928;50.546;7.120;2023-06-04T00:19:10;12.70;67.62
13713;DHT22;6928;50.546;7.120;2023-06-04T00:21:37;12.72;67.53
13713;DHT22;6928;50.546;7.120;2023-06-04T00:24:06;12.65;67.57
13713;DHT22;6928;50.546;7.120;2023-06-04T00:26:33;12.59;67.66
13713;DHT22;6928;50.546;7.120;2023-06-04T00:29:00;12.45;68.04
13713;DHT22;6928;50.546;7.120;2023-06-04T00:31:27;12.49;68.16
13713;DHT22;6928;50.546;7.120;2023-06-04T00:33:54;12.50;67.71
13713;DHT22;6928;50.546;7.120;2023-06-04T00:36:21;12.41;68.12
13713;DHT22;6928;50.546;7.120;2023-06-04T00:38:47;12.38;68.06
13713;DHT22;6928;50.546;7.120;2023-06-04T00:41:15;12.48;67.92
13713;DHT22;6928;50.546;7.120;2023-06-04T00:43:42;12.41;68.37
13713;DHT22;6928;50.546;7.120;2023-06-04T00:46:13;12.29;68.90
13713;DHT22;6928;50.546;7.120;2023-06-04T00:48:44;12.29;68.84
13713;DHT22;6928;50.546;7.120;2023-06-04T00:51:11;12.13;68.29
13713;DHT22;6928;50.546;7.120;2023-06-04T00:53:39;12.08;68.44
13713;DHT22;6928;50.546;7.120;2023-06-04T00:56:06;12.21;67.49
13713;DHT22;6928;50.546;7.120;2023-06-04T00:58:38;12.21;67.50
13713;DHT22;6928;50.546;7.120;2023-06-04T01:03:55;12.01;69.44
13713;DHT22;6928;50.546;7.120;2023-06-04T01:06:30;11.93;69.98
13713;DHT22;6928;50.546;7.120;2023-06-04T01:09:00;11.90;70.21
13713;DHT22;6928;50.546;7.120;2023-06-04T01:11:35;11.86;70.41
13713;DHT22;6928;50.546;7.120;2023-06-04T01:14:06;11.93;70.05
13713;DHT22;6928;50.546;7.120;2023-06-04T01:16:39;11.81;70.56
13713;DHT22;6928;50.546;7.120;2023-06-04T01:19:19;11.91;70.23
13713;DHT22;6928;50.546;7.120;2023-06-04T01:21:50;11.73;70.79
13713;DHT22;6928;50.546;7.120;2023-06-04T01:24:21;11.86;70.45
13713;DHT22;6928;50.546;7.120;2023-06-04T01:26:52;11.81;70.41
13713;DHT22;6928;50.546;7.120;2023-06-04T01:29:23;11.69;70.82
13713;DHT22;6928;50.546;7.120;2023-06-04T01:31:52;11.69;70.79
13713;DHT22;6928;50.546;7.120;2023-06-04T01:34:19;11.57;71.17
13713;DHT22;6928;50.546;7.120;2023-06-04T01:36:46;11.80;70.41
13713;DHT22;6928;50.546;7.120;2023-06-04T01:39:12;11.57;71.25
13713;DHT22;6928;50.546;7.120;2023-06-04T01:41:39;11.52;71.13
13713;DHT22;6928;50.546;7.120;2023-06-04T01:44:06;11.42;71.64
13713;DHT22;6928;50.546;7.120;2023-06-04T01:46:34;11.42;71.52
13713;DHT22;6928;50.546;7.120;2023-06-04T01:49:01;11.40;71.51
13713;DHT22;6928;50.546;7.120;2023-06-04T01:51:27;11.30;71.93
13713;DHT22;6928;50.546;7.120;2023-06-04T01:53:54;11.26;72.06
13713;DHT22;6928;50.546;7.120;2023-06-04T01:56:21;11.32;71.80
13713;DHT22;6928;50.546;7.120;2023-06-04T01:58:48;11.30;71.96
13713;DHT22;6928;50.546;7.120;2023-06-04T02:01:14;11.38;71.55
13713;DHT22;6928;50.546;7.120;2023-06-04T02:03:44;11.25;71.65
13713;DHT22;6928;50.546;7.120;2023-06-04T02:06:10;11.15;72.21
13713;DHT22;6928;50.546;7.120;2023-06-04T02:08:37;11.14;72.03
13713;DHT22;6928;50.546;7.120;2023-06-04T02:11:05;11.09;71.52
13713;DHT22;6928;50.546;7.120;2023-06-04T02:13:32;11.28;71.26
13713;DHT22;6928;50.546;7.120;2023-06-04T02:15:59;11.15;72.19
13713;DHT22;6928;50.546;7.120;2023-06-04T02:18:25;11.14;72.09
13713;DHT22;6928;50.546;7.120;2023-06-04T02:20:54;11.07;72.55
13713;DHT22;6928;50.546;7.120;2023-06-04T02:23:21;11.07;72.58
13713;DHT22;6928;50.546;7.120;2023-06-04T02:25:48;11.07;72.55
13713;DHT22;6928;50.546;7.120;2023-06-04T02:28:15;10.97;72.68
13713;DHT22;6928;50.546;7.120;2023-06-04T02:30:43;10.83;73.32
13713;DHT22;6928;50.546;7.120;2023-06-04T02:33:11;10.73;73.85
13713;DHT22;6928;50.546;7.120;2023-06-04T02:35:38;10.70;73.95
13713;DHT22;6928;50.546;7.120;2023-06-04T02:38:06;10.66;74.17
13713;DHT22;6928;50.546;7.120;2023-06-04T02:40:33;10.71;73.97
13713;DHT22;6928;50.546;7.120;2023-06-04T02:43:00;10.80;73.52
13713;DHT22;6928;50.546;7.120;2023-06-04T02:45:27;10.83;73.24
13713;DHT22;6928;50.546;7.120;2023-06-04T02:47:54;10.71;73.69
13713;DHT22;6928;50.546;7.120;2023-06-04T02:50:21;10.50;74.62
13713;DHT22;6928;50.546;7.120;2023-06-04T02:52:47;10.70;73.75
13713;DHT22;6928;50.546;7.120;2023-06-04T02:55:15;10.60;73.95
13713;DHT22;6928;50.546;7.120;2023-06-04T02:57:43;10.61;73.40
13713;DHT22;6928;50.546;7.120;2023-06-04T03:00:11;10.56;73.42
13713;DHT22;6928;50.546;7.120;2023-06-04T03:02:40;10.67;72.92
13713;DHT22;6928;50.546;7.120;2023-06-04T03:05:10;10.59;73.22
13713;DHT22;6928;50.546;7.120;2023-06-04T03:07:38;10.64;72.96
13713;DHT22;6928;50.546;7.120;2023-06-04T03:10:07;10.47;73.34
13713;DHT22;6928;50.546;7.120;2023-06-04T03:12:36;10.53;73.47
13713;DHT22;6928;50.546;7.120;2023-06-04T03:15:04;10.50;73.44
13713;DHT22;6928;50.546;7.120;2023-06-04T03:17:31;10.47;73.98
13713;DHT22;6928;50.546;7.120;2023-06-04T03:19:58;10.51;73.70
13713;DHT22;6928;50.546;7.120;2023-06-04T03:22:25;10.46;74.00
13713;DHT22;6928;50.546;7.120;2023-06-04T03:24:53;10.43;73.44
13713;DHT22;6928;50.546;7.120;2023-06-04T03:27:20;10.50;73.01
13713;DHT22;6928;50.546;7.120;2023-06-04T03:29:48;10.33;73.67
13713;DHT22;6928;50.546;7.120;2023-06-04T03:32:15;10.40;73.58
13713;DHT22;6928;50.546;7.120;2023-06-04T03:34:42;10.41;73.16
13713;DHT22;6928;50.546;7.120;2023-06-04T03:37:09;10.23;73.84
13713;DHT22;6928;50.546;7.120;2023-06-04T03:39:36;10.16;74.55
13713;DHT22;6928;50.546;7.120;2023-06-04T03:42:03;10.16;74.81
13713;DHT22;6928;50.546;7.120;2023-06-04T03:44:32;10.03;75.51
13713;DHT22;6928;50.546;7.120;2023-06-04T03:47:00;10.01;75.85
13713;DHT22;6928;50.546;7.120;2023-06-04T03:49:27;10.08;75.59
13713;DHT22;6928;50.546;7.120;2023-06-04T03:51:54;10.05;75.77
13713;DHT22;6928;50.546;7.120;2023-06-04T03:54:21;10.02;75.82
13713;DHT22;6928;50.546;7.120;2023-06-04T03:56:48;9.89;76.44
13713;DHT22;6928;50.546;7.120;2023-06-04T03:59:15;9.97;76.03
13713;DHT22;6928;50.546;7.120;2023-06-04T04:01:42;10.03;75.73
13713;DHT22;6928;50.546;7.120;2023-06-04T04:04:10;10.12;75.31
13713;DHT22;6928;50.546;7.120;2023-06-04T04:06:37;10.13;75.09
13713;DHT22;6928;50.546;7.120;2023-06-04T04:09:04;10.10;75.18
13713;DHT22;6928;50.546;7.120;2023-06-04T04:11:32;10.20;74.77
13713;DHT22;6928;50.546;7.120;2023-06-04T04:13:59;10.20;75.17
13713;DHT22;6928;50.546;7.120;2023-06-04T04:16:26;10.25;74.49
13713;DHT22;6928;50.546;7.120;2023-06-04T04:18:53;10.28;74.15
13713;DHT22;6928;50.546;7.120;2023-06-04T04:21:21;10.25;74.44
13713;DHT22;6928;50.546;7.120;2023-06-04T04:23:49;10.25;74.52
13713;DHT22;6928;50.546;7.120;2023-06-04T04:26:17;10.30;74.24
13713;DHT22;6928;50.546;7.120;2023-06-04T04:28:44;10.39;73.89
13713;DHT22;6928;50.546;7.120;2023-06-04T04:31:11;10.32;74.08
13713;DHT22;6928;50.546;7.120;2023-06-04T04:33:37;10.44;74.06
13713;DHT22;6928;50.546;7.120;2023-06-04T04:36:05;10.28;74.34
13713;DHT22;6928;50.546;7.120;2023-06-04T04:38:36;10.29;74.35
13713;DHT22;6928;50.546;7.120;2023-06-04T04:41:03;10.36;74.02
13713;DHT22;6928;50.546;7.120;2023-06-04T04:43:32;10.56;73.41
13713;DHT22;6928;50.546;7.120;2023-06-04T04:45:59;10.53;73.66
13713;DHT22;6928;50.546;7.120;2023-06-04T04:48:26;10.57;73.58
13713;DHT22;6928;50.546;7.120;2023-06-04T04:50:53;10.76;72.98
13713;DHT22;6928;50.546;7.120;2023-06-04T04:53:20;10.56;74.00
13713;DHT22;6928;50.546;7.120;2023-06-04T04:55:48;10.59;74.18
13713;DHT22;6928;50.546;7.120;2023-06-04T04:58:15;10.76;73.12
13713;DHT22;6928;50.546;7.120;2023-06-04T05:00:42;10.85;72.72
13713;DHT22;6928;50.546;7.120;2023-06-04T05:03:09;10.81;73.34
13713;DHT22;6928;50.546;7.120;2023-06-04T05:05:36;10.99;72.54
13713;DHT22;6928;50.546;7.120;2023-06-04T05:08:03;10.91;72.57
13713;DHT22;6928;50.546;7.120;2023-06-04T05:10:30;10.99;72.20
13713;DHT22;6928;50.546;7.120;2023-06-04T05:12:59;11.04;72.19
13713;DHT22;6928;50.546;7.120;2023-06-04T05:15:26;11.18;71.67
13713;DHT22;6928;50.546;7.120;2023-06-04T05:17:53;11.22;71.85
13713;DHT22;6928;50.546;7.120;2023-06-04T05:20:21;11.20;71.76
13713;DHT22;6928;50.546;7.120;2023-06-04T05:22:48;11.38;71.54
13713;DHT22;6928;50.546;7.120;2023-06-04T05:25:16;11.32;71.99
13713;DHT22;6928;50.546;7.120;2023-06-04T05:27:43;11.38;72.21
13713;DHT22;6928;50.546;7.120;2023-06-04T05:30:13;11.38;71.96
13713;DHT22;6928;50.546;7.120;2023-06-04T05:32:40;11.60;71.49
13713;DHT22;6928;50.546;7.120;2023-06-04T05:35:08;11.62;70.84
13713;DHT22;6928;50.546;7.120;2023-06-04T05:37:36;11.60;71.23
13713;DHT22;6928;50.546;7.120;2023-06-04T05:40:07;11.65;71.60
13713;DHT22;6928;50.546;7.120;2023-06-04T05:42:35;11.83;70.74
13713;DHT22;6928;50.546;7.120;2023-06-04T05:45:02;11.90;70.15
13713;DHT22;6928;50.546;7.120;2023-06-04T05:47:31;11.90;70.38
13713;DHT22;6928;50.546;7.120;2023-06-04T05:49:57;12.01;69.91
13713;DHT22;6928;50.546;7.120;2023-06-04T05:52:25;12.18;69.07
13713;DHT22;6928;50.546;7.120;2023-06-04T05:54:51;12.25;69.36
13713;DHT22;6928;50.546;7.120;2023-06-04T05:57:19;12.29;69.32
13713;DHT22;6928;50.546;7.120;2023-06-04T05:59:46;12.39;68.61
13713;DHT22;6928;50.546;7.120;2023-06-04T06:02:13;12.45;68.67
13713;DHT22;6928;50.546;7.120;2023-06-04T06:04:41;12.56;68.18
13713;DHT22;6928;50.546;7.120;2023-06-04T06:07:08;12.62;68.08
13713;DHT22;6928;50.546;7.120;2023-06-04T06:09:35;12.77;67.90
13713;DHT22;6928;50.546;7.120;2023-06-04T06:12:02;12.87;67.89
13713;DHT22;6928;50.546;7.120;2023-06-04T06:14:31;13.08;67.30
13713;DHT22;6928;50.546;7.120;2023-06-04T06:16:57;13.27;65.24
13713;DHT22;6928;50.546;7.120;2023-06-04T06:19:24;13.46;65.10
13713;DHT22;6928;50.546;7.120;2023-06-04T06:21:53;13.49;64.23
13713;DHT22;6928;50.546;7.120;2023-06-04T06:24:20;13.58;64.00
13713;DHT22;6928;50.546;7.120;2023-06-04T06:26:46;13.59;64.04
13713;DHT22;6928;50.546;7.120;2023-06-04T06:29:13;13.75;63.57
13713;DHT22;6928;50.546;7.120;2023-06-04T06:31:40;13.73;63.51
13713;DHT22;6928;50.546;7.120;2023-06-04T06:34:07;13.94;62.62
13713;DHT22;6928;50.546;7.120;2023-06-04T06:36:33;14.07;63.18
13713;DHT22;6928;50.546;7.120;2023-06-04T06:39:01;14.40;62.59
13713;DHT22;6928;50.546;7.120;2023-06-04T06:41:29;14.30;62.76
13713;DHT22;6928;50.546;7.120;2023-06-04T06:43:56;14.28;62.99
13713;DHT22;6928;50.546;7.120;2023-06-04T06:46:23;14.40;63.26
13713;DHT22;6928;50.546;7.120;2023-06-04T06:48:50;14.82;61.45
13713;DHT22;6928;50.546;7.120;2023-06-04T06:51:17;14.69;61.65
13713;DHT22;6928;50.546;7.120;2023-06-04T06:53:44;14.82;60.78
13713;DHT22;6928;50.546;7.120;2023-06-04T06:56:14;14.98;58.58
13713;DHT22;6928;50.546;7.120;2023-06-04T06:58:41;14.98;59.14
13713;DHT22;6928;50.546;7.120;2023-06-04T07:01:08;15.02;59.48
13713;DHT22;6928;50.546;7.120;2023-06-04T07:03:35;15.22;59.67
13713;DHT22;6928;50.546;7.120;2023-06-04T07:06:03;15.29;59.35
13713;DHT22;6928;50.546;7.120;2023-06-04T07:08:30;15.29;57.62
13713;DHT22;6928;50.546;7.120;2023-06-04T07:10:57;15.89;55.35
13713;DHT22;6928;50.546;7.120;2023-06-04T07:13:25;15.67;56.77
13713;DHT22;6928;50.546;7.120;2023-06-04T07:15:53;15.58;56.83
13713;DHT22;6928;50.546;7.120;2023-06-04T07:18:19;15.65;55.90
13713;DHT22;6928;50.546;7.120;2023-06-04T07:20:46;15.79;54.73
13713;DHT22;6928;50.546;7.120;2023-06-04T07:23:13;16.08;54.29
13713;DHT22;6928;50.546;7.120;2023-06-04T07:25:40;16.08;54.69
13713;DHT22;6928;50.546;7.120;2023-06-04T07:28:06;16.32;55.07
13713;DHT22;6928;50.546;7.120;2023-06-04T07:30:34;16.18;55.57
13713;DHT22;6928;50.546;7.120;2023-06-04T07:33:02;16.06;55.99
13713;DHT22;6928;50.546;7.120;2023-06-04T07:35:29;16.20;55.94
13713;DHT22;6928;50.546;7.120;2023-06-04T07:37:56;16.70;55.32
13713;DHT22;6928;50.546;7.120;2023-06-04T07:40:22;16.59;55.90
13713;DHT22;6928;50.546;7.120;2023-06-04T07:42:49;16.47;54.34
13713;DHT22;6928;50.546;7.120;2023-06-04T07:45:16;16.65;54.17
13713;DHT22;6928;50.546;7.120;2023-06-04T07:47:44;16.95;54.29
13713;DHT22;6928;50.546;7.120;2023-06-04T07:50:11;17.00;55.14
13713;DHT22;6928;50.546;7.120;2023-06-04T07:52:38;17.23;54.39
13713;DHT22;6928;50.546;7.120;2023-06-04T07:55:06;17.52;53.75
13713;DHT22;6928;50.546;7.120;2023-06-04T07:57:33;17.65;53.85
13713;DHT22;6928;50.546;7.120;2023-06-04T08:00:00;17.54;53.94
13713;DHT22;6928;50.546;7.120;2023-06-04T08:02:29;17.91;52.72
13713;DHT22;6928;50.546;7.120;2023-06-04T08:04:57;17.83;52.27
13713;DHT22;6928;50.546;7.120;2023-06-04T08:07:24;17.74;52.22
13713;DHT22;6928;50.546;7.120;2023-06-04T08:09:51;17.38;52.47
13713;DHT22;6928;50.546;7.120;2023-06-04T08:12:18;17.60;52.67
13713;DHT22;6928;50.546;7.120;2023-06-04T08:14:45;17.79;52.86
13713;DHT22;6928;50.546;7.120;2023-06-04T08:17:12;17.59;51.78
13713;DHT22;6928;50.546;7.120;2023-06-04T08:19:39;18.08;51.46
13713;DHT22;6928;50.546;7.120;2023-06-04T08:22:07;17.89;51.97
13713;DHT22;6928;50.546;7.120;2023-06-04T08:24:36;18.17;50.50
13713;DHT22;6928;50.546;7.120;2023-06-04T08:27:04;18.11;51.64
13713;DHT22;6928;50.546;7.120;2023-06-04T08:29:32;18.11;51.97
13713;DHT22;6928;50.546;7.120;2023-06-04T08:32:00;18.41;51.84
13713;DHT22;6928;50.546;7.120;2023-06-04T08:34:26;18.72;50.81
13713;DHT22;6928;50.546;7.120;2023-06-04T08:36:53;18.73;50.53
13713;DHT22;6928;50.546;7.120;2023-06-04T08:39:22;18.31;51.33
13713;DHT22;6928;50.546;7.120;2023-06-04T08:41:52;18.31;51.68
13713;DHT22;6928;50.546;7.120;2023-06-04T08:44:19;18.24;50.44
13713;DHT22;6928;50.546;7.120;2023-06-04T08:46:51;18.87;49.96
13713;DHT22;6928;50.546;7.120;2023-06-04T08:49:19;18.94;49.87
13713;DHT22;6928;50.546;7.120;2023-06-04T08:51:48;19.45;50.08
13713;DHT22;6928;50.546;7.120;2023-06-04T08:54:16;19.69;48.07
13713;DHT22;6928;50.546;7.120;2023-06-04T08:56:45;19.52;49.42
13713;DHT22;6928;50.546;7.120;2023-06-04T08:59:12;19.76;50.00
13713;DHT22;6928;50.546;7.120;2023-06-04T09:01:39;19.70;50.97
13713;DHT22;6928;50.546;7.120;2023-06-04T09:04:10;19.63;50.15
13713;DHT22;6928;50.546;7.120;2023-06-04T09:06:37;19.69;51.07
13713;DHT22;6928;50.546;7.120;2023-06-04T09:09:09;20.26;48.37
13713;DHT22;6928;50.546;7.120;2023-06-04T09:11:41;20.02;47.71
13713;DHT22;6928;50.546;7.120;2023-06-04T09:14:14;20.16;47.24
13713;DHT22;6928;50.546;7.120;2023-06-04T09:16:44;20.52;46.63
13713;DHT22;6928;50.546;7.120;2023-06-04T09:19:11;20.09;46.58
13713;DHT22;6928;50.546;7.120;2023-06-04T09:21:52;20.36;47.09
13713;DHT22;6928;50.546;7.120;2023-06-04T09:24:21;20.38;46.84
13713;DHT22;6928;50.546;7.120;2023-06-04T09:26:49;20.82;45.26
13713;DHT22;6928;50.546;7.120;2023-06-04T09:29:18;20.61;47.30
13713;DHT22;6928;50.546;7.120;2023-06-04T09:31:45;20.36;46.66
13713;DHT22;6928;50.546;7.120;2023-06-04T09:34:13;20.86;46.81
13713;DHT22;6928;50.546;7.120;2023-06-04T09:36:40;20.92;44.95
13713;DHT22;6928;50.546;7.120;2023-06-04T09:39:15;21.27;44.41
13713;DHT22;6928;50.546;7.120;2023-06-04T09:41:42;20.96;45.35
13713;DHT22;6928;50.546;7.120;2023-06-04T09:44:09;21.20;45.69
13713;DHT22;6928;50.546;7.120;2023-06-04T09:46:39;20.99;46.34
13713;DHT22;6928;50.546;7.120;2023-06-04T09:49:06;21.39;44.67
13713;DHT22;6928;50.546;7.120;2023-06-04T09:51:33;21.40;44.23
13713;DHT22;6928;50.546;7.120;2023-06-04T09:54:01;21.47;43.95
13713;DHT22;6928;50.546;7.120;2023-06-04T09:56:29;21.68;43.48
13713;DHT22;6928;50.546;7.120;2023-06-04T09:58:59;21.58;43.67
13713;DHT22;6928;50.546;7.120;2023-06-04T10:01:29;21.78;44.16
13713;DHT22;6928;50.546;7.120;2023-06-04T10:04:03;21.73;43.23
13713;DHT22;6928;50.546;7.120;2023-06-04T10:06:34;21.92;42.67
13713;DHT22;6928;50.546;7.120;2023-06-04T10:09:05;21.98;42.60
13713;DHT22;6928;50.546;7.120;2023-06-04T10:11:35;22.16;43.19
13713;DHT22;6928;50.546;7.120;2023-06-04T10:14:12;22.23;41.99
13713;DHT22;6928;50.546;7.120;2023-06-04T10:16:41;21.82;42.36
13713;DHT22;6928;50.546;7.120;2023-06-04T10:19:10;21.91;42.16
13713;DHT22;6928;50.546;7.120;2023-06-04T10:21:37;21.94;42.06
13713;DHT22;6928;50.546;7.120;2023-06-04T10:24:05;21.95;41.70
13713;DHT22;6928;50.546;7.120;2023-06-04T10:26:33;22.25;40.48
13713;DHT22;6928;50.546;7.120;2023-06-04T10:29:01;22.57;40.41
13713;DHT22;6928;50.546;7.120;2023-06-04T10:31:28;22.18;40.61
13713;DHT22;6928;50.546;7.120;2023-06-04T10:33:55;22.69;39.79
13713;DHT22;6928;50.546;7.120;2023-06-04T10:36:25;22.67;41.93
13713;DHT22;6928;50.546;7.120;2023-06-04T10:38:53;22.84;38.72
13713;DHT22;6928;50.546;7.120;2023-06-04T10:41:22;22.60;39.70
13713;DHT22;6928;50.546;7.120;2023-06-04T10:43:51;23.07;39.35
13713;DHT22;6928;50.546;7.120;2023-06-04T10:46:23;22.95;39.65
13713;DHT22;6928;50.546;7.120;2023-06-04T10:48:51;23.43;38.59
13713;DHT22;6928;50.546;7.120;2023-06-04T10:51:30;22.67;38.40
13713;DHT22;6928;50.546;7.120;2023-06-04T10:53:58;23.55;37.96
13713;DHT22;6928;50.546;7.120;2023-06-04T10:56:26;23.18;37.17
13713;DHT22;6928;50.546;7.120;2023-06-04T10:58:53;22.69;37.85
13713;DHT22;6928;50.546;7.120;2023-06-04T11:01:24;23.20;37.62
13713;DHT22;6928;50.546;7.120;2023-06-04T11:03:52;23.45;37.53
13713;DHT22;6928;50.546;7.120;2023-06-04T11:06:19;23.43;37.21
13713;DHT22;6928;50.546;7.120;2023-06-04T11:08:48;24.47;34.17
13713;DHT22;6928;50.546;7.120;2023-06-04T11:11:16;23.79;34.26
13713;DHT22;6928;50.546;7.120;2023-06-04T11:13:43;23.89;34.66
13713;DHT22;6928;50.546;7.120;2023-06-04T11:16:15;23.85;33.48
13713;DHT22;6928;50.546;7.120;2023-06-04T11:18:43;24.06;34.68
13713;DHT22;6928;50.546;7.120;2023-06-04T11:21:11;24.16;33.45
13713;DHT22;6928;50.546;7.120;2023-06-04T11:23:40;24.37;32.31
13713;DHT22;6928;50.546;7.120;2023-06-04T11:26:09;23.60;32.37
13713;DHT22;6928;50.546;7.120;2023-06-04T11:28:36;24.06;32.24
13713;DHT22;6928;50.546;7.120;2023-06-04T11:31:03;23.97;34.13
13713;DHT22;6928;50.546;7.120;2023-06-04T11:33:41;23.43;34.75
13713;DHT22;6928;50.546;7.120;2023-06-04T11:36:08;24.03;33.42
13713;DHT22;6928;50.546;7.120;2023-06-04T11:38:35;23.87;32.66
13713;DHT22;6928;50.546;7.120;2023-06-04T11:41:02;23.39;33.76
13713;DHT22;6928;50.546;7.120;2023-06-04T11:43:32;23.78;32.83
13713;DHT22;6928;50.546;7.120;2023-06-04T11:46:05;23.62;32.60
13713;DHT22;6928;50.546;7.120;2023-06-04T11:48:33;23.72;33.04
13713;DHT22;6928;50.546;7.120;2023-06-04T11:51:06;24.14;33.60
13713;DHT22;6928;50.546;7.120;2023-06-04T11:53:36;24.28;31.23
13713;DHT22;6928;50.546;7.120;2023-06-04T11:56:03;23.93;32.93
13713;DHT22;6928;50.546;7.120;2023-06-04T11:58:32;24.57;31.65
13713;DHT22;6928;50.546;7.120;2023-06-04T12:00:59;24.07;33.00
13713;DHT22;6928;50.546;7.120;2023-06-04T12:03:38;24.21;31.98
13713;DHT22;6928;50.546;7.120;2023-06-04T12:06:13;24.20;32.64
13713;DHT22;6928;50.546;7.120;2023-06-04T12:08:49;24.37;31.81
13713;DHT22;6928;50.546;7.120;2023-06-04T12:11:28;24.58;32.10
13713;DHT22;6928;50.546;7.120;2023-06-04T12:14:03;24.14;32.22
13713;DHT22;6928;50.546;7.120;2023-06-04T12:16:31;24.03;31.75
13713;DHT22;6928;50.546;7.120;2023-06-04T12:19:09;24.34;31.87
13713;DHT22;6928;50.546;7.120;2023-06-04T12:21:38;24.36;32.47
13713;DHT22;6928;50.546;7.120;2023-06-04T12:24:09;24.98;31.35
13713;DHT22;6928;50.546;7.120;2023-06-04T12:26:37;25.36;29.57
13713;DHT22;6928;50.546;7.120;2023-06-04T12:29:12;24.65;30.68
13713;DHT22;6928;50.546;7.120;2023-06-04T12:31:41;24.52;30.44
13713;DHT22;6928;50.546;7.120;2023-06-04T12:34:10;24.51;30.61
13713;DHT22;6928;50.546;7.120;2023-06-04T12:36:37;24.55;31.29
13713;DHT22;6928;50.546;7.120;2023-06-04T12:39:05;24.34;30.98
13713;DHT22;6928;50.546;7.120;2023-06-04T12:41:33;24.33;30.33
13713;DHT22;6928;50.546;7.120;2023-06-04T12:44:02;24.61;29.78
13713;DHT22;6928;50.546;7.120;2023-06-04T12:46:30;24.25;31.40
13713;DHT22;6928;50.546;7.120;2023-06-04T12:48:56;24.24;30.71
13713;DHT22;6928;50.546;7.120;2023-06-04T12:51:23;25.00;30.85
13713;DHT22;6928;50.546;7.120;2023-06-04T12:53:50;24.54;31.24
13713;DHT22;6928;50.546;7.120;2023-06-04T12:56:18;24.57;31.76
13713;DHT22;6928;50.546;7.120;2023-06-04T12:58:45;24.75;30.92
13713;DHT22;6928;50.546;7.120;2023-06-04T13:01:12;24.67;28.80
13713;DHT22;6928;50.546;7.120;2023-06-04T13:03:40;25.26;28.53
13713;DHT22;6928;50.546;7.120;2023-06-04T13:06:07;24.72;29.84
13713;DHT22;6928;50.546;7.120;2023-06-04T13:08:37;24.80;30.45
13713;DHT22;6928;50.546;7.120;2023-06-04T13:11:04;24.80;29.40
13713;DHT22;6928;50.546;7.120;2023-06-04T13:13:32;24.58;30.52
13713;DHT22;6928;50.546;7.120;2023-06-04T13:15:58;24.31;30.70
13713;DHT22;6928;50.546;7.120;2023-06-04T13:18:26;24.25;30.34
13713;DHT22;6928;50.546;7.120;2023-06-04T13:20:54;24.13;30.47
13713;DHT22;6928;50.546;7.120;2023-06-04T13:23:22;24.88;29.41
13713;DHT22;6928;50.546;7.120;2023-06-04T13:25:49;25.63;28.74
13713;DHT22;6928;50.546;7.120;2023-06-04T13:28:16;24.82;28.84
13713;DHT22;6928;50.546;7.120;2023-06-04T13:30:43;25.09;29.29
13713;DHT22;6928;50.546;7.120;2023-06-04T13:33:10;25.78;28.73
13713;DHT22;6928;50.546;7.120;2023-06-04T13:35:36;24.75;30.43
13713;DHT22;6928;50.546;7.120;2023-06-04T13:38:05;25.88;28.94
13713;DHT22;6928;50.546;7.120;2023-06-04T13:40:34;25.53;28.55
13713;DHT22;6928;50.546;7.120;2023-06-04T13:43:01;25.43;28.56
13713;DHT22;6928;50.546;7.120;2023-06-04T13:45:27;25.44;28.14
13713;DHT22;6928;50.546;7.120;2023-06-04T13:47:54;25.91;28.41
13713;DHT22;6928;50.546;7.120;2023-06-04T13:50:24;26.06;26.65
13713;DHT22;6928;50.546;7.120;2023-06-04T13:52:51;25.06;28.16
13713;DHT22;6928;50.546;7.120;2023-06-04T13:55:19;25.06;27.68
13713;DHT22;6928;50.546;7.120;2023-06-04T13:57:46;25.20;27.28
13713;DHT22;6928;50.546;7.120;2023-06-04T14:00:14;24.75;28.00
13713;DHT22;6928;50.546;7.120;2023-06-04T14:02:41;25.12;29.13
13713;DHT22;6928;50.546;7.120;2023-06-04T14:05:08;25.03;27.57
13713;DHT22;6928;50.546;7.120;2023-06-04T14:07:35;24.94;26.33
13713;DHT22;6928;50.546;7.120;2023-06-04T14:10:03;25.13;27.70
13713;DHT22;6928;50.546;7.120;2023-06-04T14:12:32;25.41;27.03
13713;DHT22;6928;50.546;7.120;2023-06-04T14:14:59;25.10;27.65
13713;DHT22;6928;50.546;7.120;2023-06-04T14:17:26;24.76;28.15
13713;DHT22;6928;50.546;7.120;2023-06-04T14:19:53;25.15;28.23
13713;DHT22;6928;50.546;7.120;2023-06-04T14:22:20;24.68;28.73
13713;DHT22;6928;50.546;7.120;2023-06-04T14:24:47;25.00;28.37
13713;DHT22;6928;50.546;7.120;2023-06-04T14:27:14;25.40;28.20
13713;DHT22;6928;50.546;7.120;2023-06-04T14:29:42;25.22;28.62
13713;DHT22;6928;50.546;7.120;2023-06-04T14:32:09;25.34;28.37
13713;DHT22;6928;50.546;7.120;2023-06-04T14:34:37;25.26;28.87
13713;DHT22;6928;50.546;7.120;2023-06-04T14:37:04;25.54;25.84
13713;DHT22;6928;50.546;7.120;2023-06-04T14:39:31;24.95;26.97
13713;DHT22;6928;50.546;7.120;2023-06-04T14:41:58;24.92;27.06
13713;DHT22;6928;50.546;7.120;2023-06-04T14:44:25;25.41;27.13
13713;DHT22;6928;50.546;7.120;2023-06-04T14:46:53;25.12;27.26
13713;DHT22;6928;50.546;7.120;2023-06-04T14:49:20;25.12;27.79
13713;DHT22;6928;50.546;7.120;2023-06-04T14:51:47;25.26;27.98
13713;DHT22;6928;50.546;7.120;2023-06-04T14:54:14;25.03;27.49
13713;DHT22;6928;50.546;7.120;2023-06-04T14:56:41;24.86;28.31
13713;DHT22;6928;50.546;7.120;2023-06-04T14:59:09;25.00;27.91
13713;DHT22;6928;50.546;7.120;2023-06-04T15:01:38;25.63;26.80
13713;DHT22;6928;50.546;7.120;2023-06-04T15:04:08;25.57;27.09
13713;DHT22;6928;50.546;7.120;2023-06-04T15:06:35;25.15;27.50
13713;DHT22;6928;50.546;7.120;2023-06-04T15:09:01;25.36;28.57
13713;DHT22;6928;50.546;7.120;2023-06-04T15:11:29;25.67;27.16
13713;DHT22;6928;50.546;7.120;2023-06-04T15:13:56;25.30;27.38
13713;DHT22;6928;50.546;7.120;2023-06-04T15:16:23;25.30;27.93
13713;DHT22;6928;50.546;7.120;2023-06-04T15:18:50;25.43;26.82
13713;DHT22;6928;50.546;7.120;2023-06-04T15:21:18;25.31;27.40
13713;DHT22;6928;50.546;7.120;2023-06-04T15:23:45;25.46;27.36
13713;DHT22;6928;50.546;7.120;2023-06-04T15:26:16;25.23;26.83
13713;DHT22;6928;50.546;7.120;2023-06-04T15:28:43;25.60;27.55
13713;DHT22;6928;50.546;7.120;2023-06-04T15:31:10;25.10;27.32
13713;DHT22;6928;50.546;7.120;2023-06-04T15:33:37;25.22;27.30
13713;DHT22;6928;50.546;7.120;2023-06-04T15:36:04;25.67;27.35
13713;DHT22;6928;50.546;7.120;2023-06-04T15:38:32;25.58;27.97
13713;DHT22;6928;50.546;7.120;2023-06-04T15:41:02;25.28;27.98
13713;DHT22;6928;50.546;7.120;2023-06-04T15:43:31;25.36;27.70
13713;DHT22;6928;50.546;7.120;2023-06-04T15:45:59;25.19;27.98
13713;DHT22;6928;50.546;7.120;2023-06-04T15:48:27;25.30;28.78
13713;DHT22;6928;50.546;7.120;2023-06-04T15:50:54;25.24;28.25
13713;DHT22;6928;50.546;7.120;2023-06-04T15:53:21;24.98;28.52
13713;DHT22;6928;50.546;7.120;2023-06-04T15:55:54;25.16;28.17